Time;durP1;ratioP1;P1;durP2;ratioP2;P2;SDS_P1;SDS_P2;PMS_P1;PMS_P2;Temp;Humidity;BMP_temperature;BMP_pressure;BME280_temperature;BME280_humidity;BME280_pressure;Samples;Min_cycle;Max_cycle;Signal;HPM_P1;HPM_P2
2021/12/28 00:01:04;;;;;;;14.50;9.08;;;;;;;-2.07;59.31;101129.98;1755657;81;21010;-57
2021/12/28 00:03:30;;;;;;;12.45;7.67;;;;;;;-2.11;59.49;101130.90;1732350;81;21571;-58
2021/12/28 00:05:58;;;;;;;15.25;8.43;;;;;;;-2.10;59.60;101131.73;1752187;80;21120;-58
2021/12/28 00:08:24;;;;;;;14.78;8.73;;;;;;;-2.08;59.62;101129.56;1722759;81;21021;-58
2021/12/28 00:10:52;;;;;;;14.50;7.87;;;;;;;-2.06;59.64;101128.25;1746283;81;21089;-58
2021/12/28 00:13:18;;;;;;;13.88;7.87;;;;;;;-2.06;59.57;101131.67;1745114;80;21062;-58
2021/12/28 00:16:12;;;;;;;15.45;9.43;;;;;;;-1.99;59.55;101125.14;1719608;81;21039;-58
2021/12/28 00:18:19;;;;;;;14.35;8.35;;;;;;;-1.96;59.65;101125.94;1724200;81;21193;-58
2021/12/28 00:20:49;;;;;;;15.58;7.95;;;;;;;-1.91;59.64;101131.03;1749341;81;21110;-57
2021/12/28 00:23:18;;;;;;;14.35;8.25;;;;;;;-1.95;59.39;101130.65;1751250;81;21137;-57
2021/12/28 00:25:49;;;;;;;12.88;7.92;;;;;;;-1.99;59.36;101130.30;1750102;81;21087;-57
2021/12/28 00:28:16;;;;;;;13.55;8.83;;;;;;;-2.06;59.55;101123.09;1727301;81;21055;-57
2021/12/28 00:30:42;;;;;;;16.95;9.75;;;;;;;-2.04;59.77;101128.23;1748422;81;21140;-57
2021/12/28 00:33:09;;;;;;;16.40;8.60;;;;;;;-2.01;59.69;101130.77;1710443;81;21095;-58
2021/12/28 00:35:39;;;;;;;13.93;7.67;;;;;;;-1.99;59.49;101129.01;1743795;81;21023;-57
2021/12/28 00:38:08;;;;;;;13.40;8.18;;;;;;;-2.02;59.24;101127.77;1747058;80;21967;-57
2021/12/28 00:40:35;;;;;;;18.80;8.93;;;;;;;-2.05;59.31;101118.36;1741777;81;21383;-58
2021/12/28 00:43:01;;;;;;;14.68;8.00;;;;;;;-2.07;59.10;101118.38;1674683;83;21207;-58
2021/12/28 00:45:29;;;;;;;14.03;8.45;;;;;;;-2.11;59.04;101120.58;1728261;81;21015;-57
2021/12/28 00:47:55;;;;;;;13.58;7.83;;;;;;;-2.15;59.20;101122.81;1744100;80;21106;-57
2021/12/28 00:50:22;;;;;;;11.12;7.05;;;;;;;-2.12;59.41;101120.60;1751556;80;21388;-57
2021/12/28 00:52:49;;;;;;;13.90;7.40;;;;;;;-2.11;59.34;101120.58;1685965;83;21008;-57
2021/12/28 00:55:17;;;;;;;15.38;7.87;;;;;;;-2.11;58.97;101114.58;1749399;79;21848;-58
2021/12/28 00:57:43;;;;;;;13.62;7.75;;;;;;;-2.15;59.08;101112.91;1750878;81;21046;-57
2021/12/28 01:00:13;;;;;;;14.35;7.72;;;;;;;-2.21;58.98;101111.29;1751971;80;21560;-58
2021/12/28 01:02:40;;;;;;;13.13;8.58;;;;;;;-2.23;59.05;101120.78;1750965;80;21047;-58
2021/12/28 01:05:07;;;;;;;12.95;7.17;;;;;;;-2.24;59.09;101119.06;1746433;81;21762;-57
2021/12/28 01:07:35;;;;;;;13.70;8.48;;;;;;;-2.25;59.19;101110.48;1721639;81;21164;-57
2021/12/28 01:10:02;;;;;;;15.65;8.00;;;;;;;-2.21;59.27;101128.05;1709595;81;21083;-59
2021/12/28 01:12:28;;;;;;;14.75;8.15;;;;;;;-2.16;59.27;101124.12;1743288;80;21099;-58
2021/12/28 01:14:55;;;;;;;13.65;8.08;;;;;;;-2.14;59.06;101122.36;1717105;81;22268;-58
2021/12/28 01:17:21;;;;;;;15.68;8.53;;;;;;;-2.11;59.00;101119.73;1750097;81;21556;-58
2021/12/28 01:19:48;;;;;;;15.78;7.67;;;;;;;-2.13;58.90;101115.89;1749569;81;21157;-58
2021/12/28 01:22:14;;;;;;;14.25;8.30;;;;;;;-2.13;58.72;101124.92;1704567;82;21036;-57
2021/12/28 01:24:41;;;;;;;14.18;8.35;;;;;;;-2.17;58.87;101114.25;1747786;81;21031;-57
2021/12/28 01:27:07;;;;;;;17.95;8.98;;;;;;;-2.20;58.89;101123.73;1748712;81;21031;-57
2021/12/28 01:29:34;;;;;;;14.87;7.90;;;;;;;-2.18;59.18;101121.56;1710130;81;21529;-57
2021/12/28 01:32:00;;;;;;;14.87;8.83;;;;;;;-2.14;59.06;101117.20;1735069;81;21121;-58
2021/12/28 01:34:27;;;;;;;16.00;9.08;;;;;;;-2.11;59.07;101115.42;1735918;80;21137;-57
2021/12/28 01:36:54;;;;;;;17.65;9.25;;;;;;;-2.09;58.86;101108.51;1709128;83;21092;-57
2021/12/28 01:39:20;;;;;;;15.95;9.55;;;;;;;-2.07;58.80;101107.20;1744128;81;21083;-57
2021/12/28 01:41:46;;;;;;;19.00;9.58;;;;;;;-2.06;58.90;101102.02;1750837;79;21059;-57
2021/12/28 01:44:13;;;;;;;17.00;9.15;;;;;;;-2.06;58.81;101103.30;1682398;83;21210;-57
2021/12/28 01:46:39;;;;;;;18.37;10.48;;;;;;;-2.07;58.94;101109.78;1753986;81;21115;-57
2021/12/28 01:49:09;;;;;;;18.12;10.03;;;;;;;-2.07;58.89;101111.94;1750481;80;21129;-57
2021/12/28 01:51:35;;;;;;;15.85;10.30;;;;;;;-2.06;58.98;101104.59;1715092;82;21046;-58
2021/12/28 01:54:02;;;;;;;17.98;10.60;;;;;;;-2.04;58.91;101108.44;1737619;81;21110;-58
2021/12/28 01:56:34;;;;;;;18.92;10.72;;;;;;;-2.06;58.90;101101.17;1737585;81;21160;-57
2021/12/28 01:59:03;;;;;;;16.35;9.83;;;;;;;-2.04;58.85;101099.86;1738659;81;21052;-58
2021/12/28 02:01:30;;;;;;;22.10;10.65;;;;;;;-2.04;58.92;101102.44;1745414;80;21095;-58
2021/12/28 02:03:56;;;;;;;17.82;9.60;;;;;;;-2.04;58.99;101094.70;1743076;81;21501;-58
2021/12/28 02:06:25;;;;;;;15.75;9.78;;;;;;;-2.02;59.05;101091.66;1739282;80;21066;-57
2021/12/28 02:08:53;;;;;;;20.48;10.60;;;;;;;-2.00;58.93;101088.61;1702980;82;21123;-58
2021/12/28 02:11:19;;;;;;;20.35;9.65;;;;;;;-1.99;59.00;101087.73;1738378;80;21043;-57
2021/12/28 02:13:46;;;;;;;15.10;9.43;;;;;;;-1.99;58.95;101092.45;1736487;80;21557;-58
2021/12/28 02:16:12;;;;;;;16.48;8.70;;;;;;;-2.01;58.85;101092.08;1710772;82;21025;-57
2021/12/28 02:18:39;;;;;;;17.42;11.63;;;;;;;-2.06;58.79;101094.73;1734848;81;21089;-58
2021/12/28 02:21:07;;;;;;;20.02;10.65;;;;;;;-2.10;59.04;101098.22;1743779;80;21936;-57
2021/12/28 02:23:34;;;;;;;18.60;9.93;;;;;;;-2.13;59.06;101087.53;1731108;82;21075;-57
2021/12/28 02:26:00;;;;;;;18.82;10.00;;;;;;;-2.14;59.01;101094.00;1708335;82;21053;-57
2021/12/28 02:28:26;;;;;;;20.23;11.03;;;;;;;-2.16;59.12;101091.44;1730907;80;21101;-57
2021/12/28 02:30:56;;;;;;;20.25;11.35;;;;;;;-2.14;59.08;101088.39;1733315;81;21054;-57
2021/12/28 02:33:23;;;;;;;17.10;11.25;;;;;;;-2.14;59.05;101088.39;1736231;80;21121;-57
2021/12/28 02:35:55;;;;;;;21.68;10.38;;;;;;;-2.14;59.33;101080.66;1711260;80;21067;-57
2021/12/28 02:38:21;;;;;;;20.68;10.58;;;;;;;-2.14;58.94;101082.39;1732454;82;21081;-57
2021/12/28 02:40:47;;;;;;;18.87;10.85;;;;;;;-2.18;59.06;101084.17;1738281;80;21066;-58
2021/12/28 02:43:15;;;;;;;18.00;9.85;;;;;;;-2.16;59.08;101086.73;1732096;81;21074;-57
2021/12/28 02:45:54;;;;;;;19.05;10.63;;;;;;;-2.13;58.85;101075.92;1705680;81;21828;-57
2021/12/28 02:48:21;;;;;;;17.15;10.72;;;;;;;-2.15;58.84;101079.39;1735171;81;21050;-58
2021/12/28 02:50:52;;;;;;;17.98;10.10;;;;;;;-2.19;58.85;101073.44;1736078;80;21056;-58
2021/12/28 02:53:19;;;;;;;18.60;11.03;;;;;;;-2.17;58.77;101065.27;1749677;80;21002;-58
2021/12/28 02:55:47;;;;;;;16.40;9.88;;;;;;;-2.19;58.62;101063.57;1773249;80;21034;-58
2021/12/28 02:58:34;;;;;;;14.78;9.33;;;;;;;-2.23;58.68;101063.22;1714577;82;21106;-58
2021/12/28 03:01:09;;;;;;;21.65;10.18;;;;;;;-2.23;58.60;101052.91;1678766;83;21072;-58
2021/12/28 03:03:37;;;;;;;17.82;10.40;;;;;;;-2.29;58.70;101055.97;1708075;83;21727;-57
2021/12/28 03:07:22;;;;;;;18.35;10.28;;;;;;;-2.25;58.65;101055.06;1783787;78;23105;-58
2021/12/28 03:09:51;;;;;;;12.90;8.60;;;;;;;-2.27;58.74;101059.81;1762318;79;20993;-58
2021/12/28 03:12:17;;;;;;;15.95;9.38;;;;;;;-2.24;58.41;101055.91;1763970;79;21096;-58
2021/12/28 03:14:48;;;;;;;20.27;11.50;;;;;;;-2.28;58.48;101048.66;1767488;79;21576;-58
2021/12/28 03:17:14;;;;;;;15.15;8.73;;;;;;;-2.28;58.65;101043.95;1760678;79;21091;-58
2021/12/28 03:19:41;;;;;;;16.70;10.13;;;;;;;-2.29;58.70;101043.08;1761168;79;21526;-58
2021/12/28 03:22:07;;;;;;;18.27;9.68;;;;;;;-2.26;58.60;101044.33;1763117;79;21029;-58
2021/12/28 03:24:34;;;;;;;16.12;9.53;;;;;;;-2.20;58.47;101050.25;1739536;79;21020;-58
2021/12/28 03:27:01;;;;;;;16.05;8.15;;;;;;;-2.18;58.23;101057.55;1754538;79;21054;-58
2021/12/28 03:29:27;;;;;;;15.53;9.58;;;;;;;-2.20;57.96;101053.70;1770199;79;21030;-58
2021/12/28 03:31:54;;;;;;;18.82;10.55;;;;;;;-2.20;58.10;101054.13;1737984;81;21086;-58
2021/12/28 03:34:21;;;;;;;16.97;9.60;;;;;;;-2.19;58.27;101051.52;1767700;79;21083;-58
2021/12/28 03:36:47;;;;;;;17.85;9.93;;;;;;;-2.15;58.05;101046.74;1769106;79;22027;-58
2021/12/28 03:39:14;;;;;;;24.57;9.73;;;;;;;-2.13;58.00;101045.43;1740624;79;21055;-58
2021/12/28 03:41:40;;;;;;;18.60;10.45;;;;;;;-2.13;57.64;101042.41;1742845;81;21568;-58
2021/12/28 03:44:07;;;;;;;17.17;9.88;;;;;;;-2.17;57.54;101029.16;1770517;79;21038;-58
2021/12/28 03:46:33;;;;;;;14.60;8.73;;;;;;;-2.19;57.50;101024.45;1769386;79;21063;-59
2021/12/28 03:48:59;;;;;;;14.85;9.53;;;;;;;-2.21;57.33;101025.37;1758655;79;21082;-57
2021/12/28 03:51:26;;;;;;;20.45;10.10;;;;;;;-2.24;57.58;101027.55;1729550;81;21117;-57
2021/12/28 03:53:53;;;;;;;17.42;10.13;;;;;;;-2.25;57.58;101024.57;1758826;79;21113;-58
2021/12/28 03:56:19;;;;;;;23.87;11.33;;;;;;;-2.28;57.57;101021.59;1758759;79;21035;-57
2021/12/28 03:58:46;;;;;;;16.00;10.03;;;;;;;-2.26;57.66;101040.45;1751954;79;21030;-58
2021/12/28 04:01:17;;;;;;;18.17;10.23;;;;;;;-2.27;57.45;101031.04;1761079;79;21148;-58
2021/12/28 04:03:43;;;;;;;17.23;9.38;;;;;;;-2.32;57.37;101031.97;1755623;79;21051;-57
2021/12/28 04:06:10;;;;;;;18.25;10.40;;;;;;;-2.38;57.51;101034.22;1752617;79;21520;-57
2021/12/28 04:08:39;;;;;;;15.85;9.85;;;;;;;-2.43;57.56;101027.84;1724579;81;21075;-57
2021/12/28 04:13:48;;;;;;;18.05;10.45;;;;;;;-2.38;57.51;101038.53;1747917;80;21165;-57
2021/12/28 04:16:15;;;;;;;18.07;11.53;;;;;;;-2.43;57.35;101030.87;1741613;80;21149;-57
2021/12/28 04:18:41;;;;;;;17.00;10.65;;;;;;;-2.40;57.46;101032.53;1753729;80;21059;-57
2021/12/28 04:21:09;;;;;;;16.80;9.98;;;;;;;-2.37;57.24;101027.33;1732266;80;21523;-57
2021/12/28 04:23:36;;;;;;;18.98;10.55;;;;;;;-2.38;57.08;101029.06;1746862;80;21048;-58
2021/12/28 04:26:03;;;;;;;17.20;10.18;;;;;;;-2.45;57.23;101029.60;1734233;81;21244;-58
2021/12/28 04:28:32;;;;;;;19.15;10.82;;;;;;;-2.43;57.24;101023.98;1754742;80;21015;-57
2021/12/28 04:30:58;;;;;;;19.42;10.85;;;;;;;-2.46;57.25;101022.73;1750223;80;21057;-57
2021/12/28 04:33:25;;;;;;;17.73;9.75;;;;;;;-2.47;57.35;101022.34;1753519;80;21542;-58
2021/12/28 04:35:51;;;;;;;18.35;10.63;;;;;;;-2.45;57.49;101027.02;1735710;80;21126;-58
2021/12/28 04:38:18;;;;;;;17.45;11.38;;;;;;;-2.41;57.52;101022.67;1727040;81;21154;-60
2021/12/28 04:40:44;;;;;;;18.52;10.50;;;;;;;-2.38;57.38;101023.07;1750502;80;21535;-59
2021/12/28 04:43:12;;;;;;;20.02;11.25;;;;;;;-2.34;57.26;101022.12;1731450;81;21079;-59
2021/12/28 04:45:39;;;;;;;19.90;10.98;;;;;;;-2.33;56.94;101014.38;1759015;79;21118;-58
2021/12/28 04:48:06;;;;;;;17.57;9.88;;;;;;;-2.33;56.93;101026.42;1750322;80;21735;-58
2021/12/28 04:50:38;;;;;;;23.15;11.57;;;;;;;-2.31;56.82;101025.95;1746712;80;21083;-59
2021/12/28 04:53:09;;;;;;;17.98;11.20;;;;;;;-2.29;56.73;101017.30;1750676;80;21082;-59
2021/12/28 04:55:35;;;;;;;17.82;11.53;;;;;;;-2.29;56.53;101028.90;1742932;80;22310;-58
2021/12/28 04:58:01;;;;;;;16.60;9.18;;;;;;;-2.31;56.47;101034.98;1748829;80;21076;-57
2021/12/28 05:00:27;;;;;;;17.25;9.88;;;;;;;-2.33;56.54;101030.28;1746741;80;21035;-58
2021/12/28 05:02:54;;;;;;;21.12;10.95;;;;;;;-2.34;56.45;101044.04;1755589;81;21174;-59
2021/12/28 05:05:20;;;;;;;15.18;10.18;;;;;;;-2.36;56.51;101044.06;1725291;81;21142;-58
2021/12/28 05:07:47;;;;;;;19.82;10.20;;;;;;;-2.37;56.58;101026.91;1757746;79;21004;-59
2021/12/28 05:10:14;;;;;;;19.30;10.25;;;;;;;-2.36;56.68;101029.05;1726561;81;21187;-58
2021/12/28 05:12:40;;;;;;;19.37;11.03;;;;;;;-2.37;56.37;101025.62;1754896;80;20992;-58
2021/12/28 05:15:08;;;;;;;19.60;12.55;;;;;;;-2.38;56.57;101019.20;1754451;79;21786;-58
2021/12/28 05:17:35;;;;;;;18.00;11.40;;;;;;;-2.42;56.76;101023.56;1722788;81;21055;-58
2021/12/28 05:20:01;;;;;;;17.35;11.33;;;;;;;-2.44;56.69;101024.00;1755529;79;21578;-60
2021/12/28 05:22:30;;;;;;;16.10;9.55;;;;;;;-2.47;56.38;101024.92;1754817;79;21047;-57
2021/12/28 05:24:56;;;;;;;18.32;11.43;;;;;;;-2.48;56.49;101020.63;1756900;79;21157;-59
2021/12/28 05:27:22;;;;;;;18.05;10.85;;;;;;;-2.50;56.68;101015.09;1756771;79;21204;-57
2021/12/28 05:29:50;;;;;;;20.88;11.33;;;;;;;-2.52;56.68;101021.98;1757890;80;21556;-58
2021/12/28 05:32:17;;;;;;;16.25;10.15;;;;;;;-2.57;56.41;101025.06;1723200;80;21561;-57
2021/12/28 05:34:43;;;;;;;17.20;10.93;;;;;;;-2.66;56.69;101031.22;1724735;80;21047;-58
2021/12/28 05:37:09;;;;;;;20.15;11.33;;;;;;;-2.71;56.75;101030.44;1723135;81;21027;-57
2021/12/28 05:39:36;;;;;;;17.42;11.08;;;;;;;-2.73;56.78;101024.46;1756159;79;21145;-58
2021/12/28 05:42:04;;;;;;;21.55;12.50;;;;;;;-2.75;57.06;101026.22;1755279;79;21031;-57
2021/12/28 05:44:31;;;;;;;19.85;11.25;;;;;;;-2.79;57.03;101029.27;1755249;79;21059;-57
2021/12/28 05:46:57;;;;;;;19.32;11.70;;;;;;;-2.81;57.11;101033.16;1724532;81;21056;-57
2021/12/28 05:49:24;;;;;;;20.68;11.80;;;;;;;-2.86;57.12;101029.80;1757527;79;21508;-58
2021/12/28 05:51:50;;;;;;;17.35;11.08;;;;;;;-2.91;57.26;101024.28;1763457;79;21139;-57
2021/12/28 05:54:17;;;;;;;19.80;12.13;;;;;;;-2.93;57.55;101022.17;1755298;79;21015;-57
2021/12/28 05:56:44;;;;;;;21.05;12.30;;;;;;;-3.00;57.48;101018.83;1753373;80;21102;-57
2021/12/28 05:59:11;;;;;;;19.60;12.35;;;;;;;-3.03;57.75;101026.14;1755242;79;21051;-58
2021/12/28 06:01:38;;;;;;;17.82;10.93;;;;;;;-3.08;57.73;101033.52;1751731;79;21051;-57
2021/12/28 06:04:05;;;;;;;22.17;12.30;;;;;;;-3.10;57.97;101029.68;1754903;79;21096;-58
2021/12/28 06:06:31;;;;;;;21.40;11.68;;;;;;;-3.08;57.95;101037.38;1754941;79;21503;-57
2021/12/28 06:08:58;;;;;;;16.40;9.63;;;;;;;-3.06;57.86;101031.77;1754084;80;21088;-58
2021/12/28 06:11:24;;;;;;;19.05;11.30;;;;;;;-3.13;57.85;101032.73;1728407;81;22006;-59
2021/12/28 06:13:50;;;;;;;20.05;12.68;;;;;;;-3.18;57.94;101032.38;1753871;80;21070;-59
2021/12/28 06:16:17;;;;;;;20.15;11.53;;;;;;;-3.21;58.03;101027.67;1733079;81;21172;-58
2021/12/28 06:18:44;;;;;;;21.20;11.97;;;;;;;-3.21;58.30;101034.11;1750839;80;21017;-57
2021/12/28 06:21:10;;;;;;;21.33;10.85;;;;;;;-3.23;58.25;101037.14;1726195;81;21083;-57
2021/12/28 06:23:38;;;;;;;14.78;10.28;;;;;;;-3.24;58.27;101036.75;1752866;80;20999;-58
2021/12/28 06:26:04;;;;;;;19.98;10.93;;;;;;;-3.23;58.28;101047.02;1733711;80;21044;-58
2021/12/28 06:28:31;;;;;;;24.02;12.28;;;;;;;-3.23;58.43;101047.02;1753839;80;21147;-60
2021/12/28 06:30:58;;;;;;;18.52;10.68;;;;;;;-3.22;58.17;101044.00;1749783;81;21054;-58
2021/12/28 06:33:24;;;;;;;16.97;10.55;;;;;;;-3.22;58.07;101043.56;1755170;80;21051;-59
2021/12/28 06:35:51;;;;;;;20.23;11.97;;;;;;;-3.24;57.99;101040.60;1729662;81;21063;-58
2021/12/28 06:38:18;;;;;;;19.85;11.28;;;;;;;-3.35;58.16;101043.29;1722976;81;21204;-58
2021/12/28 06:40:45;;;;;;;20.08;11.05;;;;;;;-3.42;58.18;101046.81;1754939;80;21114;-57
2021/12/28 06:43:11;;;;;;;24.52;12.53;;;;;;;-3.51;58.17;101040.06;1743507;80;21011;-58
2021/12/28 06:45:38;;;;;;;20.40;11.08;;;;;;;-3.56;58.49;101045.25;1751794;80;21592;-59
2021/12/28 06:48:05;;;;;;;21.37;11.90;;;;;;;-3.53;58.73;101043.50;1727048;81;21494;-57
2021/12/28 06:50:33;;;;;;;16.97;10.80;;;;;;;-3.49;58.81;101045.19;1740543;80;21103;-58
2021/12/28 06:52:59;;;;;;;17.98;10.88;;;;;;;-3.45;58.61;101039.12;1754053;80;21155;-58
2021/12/28 06:55:25;;;;;;;17.60;10.72;;;;;;;-3.40;58.43;101039.92;1738784;80;21548;-58
2021/12/28 06:57:52;;;;;;;18.52;11.15;;;;;;;-3.33;58.05;101042.83;1746470;80;21079;-58
2021/12/28 07:00:19;;;;;;;22.02;12.03;;;;;;;-3.30;57.63;101044.53;1733894;81;21083;-58
2021/12/28 07:02:45;;;;;;;17.98;10.98;;;;;;;-3.28;57.62;101044.91;1721622;81;21074;-58
2021/12/28 07:05:12;;;;;;;22.37;11.93;;;;;;;-3.23;57.64;101039.72;1728427;80;22340;-58
2021/12/28 07:07:38;;;;;;;18.60;11.50;;;;;;;-3.20;57.58;101030.67;1748965;80;21476;-58
2021/12/28 07:10:06;;;;;;;18.70;11.25;;;;;;;-3.17;57.42;101024.20;1728101;81;21087;-58
2021/12/28 07:12:33;;;;;;;27.32;10.95;;;;;;;-3.15;57.30;101024.19;1751918;80;21068;-58
2021/12/28 07:15:01;;;;;;;20.72;11.33;;;;;;;-3.22;57.32;101019.11;1748634;80;21051;-58
2021/12/28 07:17:27;;;;;;;16.82;10.40;;;;;;;-3.23;57.21;101025.56;1756451;80;21143;-59
2021/12/28 07:19:55;;;;;;;21.23;11.18;;;;;;;-3.20;57.07;101024.23;1754522;81;21719;-59
2021/12/28 07:22:21;;;;;;;16.57;10.40;;;;;;;-3.19;56.72;101019.52;1752943;80;21032;-58
2021/12/28 07:24:47;;;;;;;17.52;10.32;;;;;;;-3.20;56.95;101019.93;1747067;80;21615;-57
2021/12/28 07:27:14;;;;;;;20.82;10.65;;;;;;;-3.15;56.65;101018.59;1741309;80;21052;-57
2021/12/28 07:29:42;;;;;;;21.42;11.10;;;;;;;-3.09;56.72;101022.38;1753267;80;21113;-57
2021/12/28 07:32:08;;;;;;;18.57;11.28;;;;;;;-3.06;56.51;101022.76;1745571;80;21043;-58
2021/12/28 07:34:37;;;;;;;17.73;10.72;;;;;;;-3.03;56.42;101017.58;1747037;80;21090;-57
2021/12/28 07:37:04;;;;;;;22.13;11.73;;;;;;;-2.95;56.26;101019.61;1757476;79;21022;-57
2021/12/28 07:39:30;;;;;;;18.32;10.55;;;;;;;-2.90;55.72;101016.53;1660944;84;21055;-57
2021/12/28 07:41:56;;;;;;;16.52;10.15;;;;;;;-2.86;55.43;101005.33;1753346;80;21165;-57
2021/12/28 07:44:23;;;;;;;19.55;11.03;;;;;;;-2.77;55.23;101005.63;1754793;80;21087;-57
2021/12/28 07:46:49;;;;;;;22.22;12.37;;;;;;;-2.74;55.03;101000.84;1748655;80;20996;-58
2021/12/28 07:49:16;;;;;;;21.12;11.45;;;;;;;-2.73;54.63;101003.41;1752240;80;21087;-58
2021/12/28 07:51:42;;;;;;;20.65;11.65;;;;;;;-2.72;54.63;101001.25;1758598;80;21155;-59
2021/12/28 07:54:09;;;;;;;22.37;13.55;;;;;;;-2.72;54.63;100999.97;1758740;79;21161;-59
2021/12/28 07:56:37;;;;;;;21.82;12.18;;;;;;;-2.71;54.53;101005.96;1758742;79;21588;-58
2021/12/28 07:59:04;;;;;;;21.27;12.47;;;;;;;-2.69;54.33;101011.93;1755577;80;21561;-58
2021/12/28 08:01:33;;;;;;;21.45;11.50;;;;;;;-2.72;54.50;101007.70;1754542;79;21051;-58
2021/12/28 08:03:59;;;;;;;18.55;11.70;;;;;;;-2.68;54.21;101005.92;1754049;79;21102;-58
2021/12/28 08:06:25;;;;;;;20.97;11.50;;;;;;;-2.72;54.22;100996.52;1728436;81;21757;-58
2021/12/28 08:08:52;;;;;;;24.63;11.05;;;;;;;-2.71;54.54;100995.66;1747385;80;21061;-59
2021/12/28 08:11:19;;;;;;;15.50;10.35;;;;;;;-2.65;54.26;100989.13;1751239;80;21524;-59
2021/12/28 08:13:46;;;;;;;21.87;11.83;;;;;;;-2.66;54.02;100988.26;1747785;80;21035;-59
2021/12/28 08:16:12;;;;;;;19.15;10.95;;;;;;;-2.64;54.06;100986.53;1753253;80;21835;-58
2021/12/28 08:18:40;;;;;;;18.82;10.78;;;;;;;-2.56;53.92;100995.41;1751151;80;21140;-59
2021/12/28 08:21:07;;;;;;;18.45;11.50;;;;;;;-2.55;53.63;100988.11;1732224;81;21095;-59
2021/12/28 08:23:34;;;;;;;18.85;11.53;;;;;;;-2.60;53.53;100982.63;1751890;80;21549;-59
2021/12/28 08:26:00;;;;;;;17.32;10.28;;;;;;;-2.61;53.95;100974.02;1727892;81;21059;-58
2021/12/28 08:28:27;;;;;;;15.95;9.78;;;;;;;-2.56;53.32;100967.06;1744626;80;21217;-58
2021/12/28 08:30:54;;;;;;;19.32;11.63;;;;;;;-2.61;53.25;100965.00;1731741;80;21155;-59
2021/12/28 08:33:20;;;;;;;19.67;11.75;;;;;;;-2.64;53.19;100967.21;1751557;80;21118;-57
2021/12/28 08:35:47;;;;;;;15.93;10.23;;;;;;;-2.68;53.36;100960.84;1746904;80;21110;-59
2021/12/28 08:38:14;;;;;;;20.97;12.50;;;;;;;-2.69;53.55;100966.85;1743522;80;21117;-58
2021/12/28 08:40:41;;;;;;;23.38;12.15;;;;;;;-2.68;53.13;100964.70;1734345;81;21013;-58
2021/12/28 08:43:08;;;;;;;22.85;12.33;;;;;;;-2.68;53.00;100958.26;1744995;80;21108;-58
2021/12/28 08:45:35;;;;;;;20.37;10.78;;;;;;;-2.70;53.04;100962.59;1758841;79;21103;-59
2021/12/28 08:48:02;;;;;;;17.55;10.80;;;;;;;-2.65;53.30;100968.07;1731666;80;21067;-59
2021/12/28 08:50:29;;;;;;;20.25;11.45;;;;;;;-2.63;52.57;100967.60;1748527;80;21045;-58
2021/12/28 08:52:55;;;;;;;19.95;11.18;;;;;;;-2.59;52.21;100956.80;1750719;80;21063;-58
2021/12/28 08:55:23;;;;;;;19.02;11.88;;;;;;;-2.52;52.35;100949.83;1748608;80;21090;-58
2021/12/28 08:57:50;;;;;;;19.45;9.98;;;;;;;-2.50;51.89;100947.65;1749200;80;21100;-59
2021/12/28 09:00:23;;;;;;;21.65;11.28;;;;;;;-2.48;51.94;100945.05;1752714;80;22200;-59
2021/12/28 09:02:53;;;;;;;21.97;12.75;;;;;;;-2.40;52.08;100945.77;1754022;79;20970;-58
2021/12/28 09:05:22;;;;;;;19.35;11.10;;;;;;;-2.37;51.18;100943.14;1733586;81;21024;-57
2021/12/28 09:07:51;;;;;;;20.23;12.35;;;;;;;-2.43;50.90;100937.64;1749544;80;21605;-58
2021/12/28 09:10:17;;;;;;;16.05;10.70;;;;;;;-2.45;51.27;100931.67;1750060;80;21098;-58
2021/12/28 09:12:44;;;;;;;15.90;10.20;;;;;;;-2.41;51.59;100930.33;1745735;80;21525;-58
2021/12/28 09:15:12;;;;;;;20.25;11.65;;;;;;;-2.34;51.46;100928.05;1747099;80;21055;-58
2021/12/28 09:17:39;;;;;;;20.95;12.00;;;;;;;-2.29;51.34;100923.66;1749761;80;21333;-58
2021/12/28 09:20:11;;;;;;;20.05;10.72;;;;;;;-2.30;50.48;100921.98;1753503;80;21795;-58
2021/12/28 09:22:37;;;;;;;18.50;11.28;;;;;;;-2.42;50.61;100916.60;1749840;80;21556;-58
2021/12/28 09:25:06;;;;;;;19.25;11.15;;;;;;;-2.51;50.79;100909.86;1750869;80;21035;-59
2021/12/28 09:27:34;;;;;;;18.30;10.45;;;;;;;-2.58;51.29;100917.30;1738342;80;21057;-58
2021/12/28 09:30:00;;;;;;;18.65;11.12;;;;;;;-2.62;51.23;100923.39;1746122;80;21071;-59
2021/12/28 09:32:27;;;;;;;18.52;11.00;;;;;;;-2.60;50.85;100910.03;1751725;80;21127;-59
2021/12/28 09:34:54;;;;;;;18.57;11.18;;;;;;;-2.61;50.55;100921.20;1752192;80;21123;-57
2021/12/28 09:37:21;;;;;;;17.32;10.68;;;;;;;-2.65;51.01;100924.72;1706238;81;21100;-57
2021/12/28 09:39:48;;;;;;;20.05;10.53;;;;;;;-2.62;51.34;100926.80;1747833;80;21013;-57
2021/12/28 09:42:15;;;;;;;19.85;10.68;;;;;;;-2.50;51.10;100919.75;1747245;80;21008;-57
2021/12/28 09:44:41;;;;;;;17.80;10.25;;;;;;;-2.37;51.04;100925.10;1748369;80;21215;-58
2021/12/28 09:47:08;;;;;;;19.12;10.55;;;;;;;-2.28;50.68;100918.92;1746565;80;21115;-58
2021/12/28 09:49:35;;;;;;;17.37;10.93;;;;;;;-2.21;50.35;100911.92;1749417;80;21096;-58
2021/12/28 09:52:05;;;;;;;17.42;10.93;;;;;;;-2.20;49.98;100908.03;1748963;80;21047;-58
2021/12/28 09:54:33;;;;;;;15.90;9.35;;;;;;;-2.22;49.90;100903.77;1753102;80;21013;-57
2021/12/28 09:57:00;;;;;;;16.23;9.08;;;;;;;-2.23;49.88;100908.09;1751041;80;21163;-58
2021/12/28 09:59:28;;;;;;;16.10;9.58;;;;;;;-2.18;50.23;100902.85;1752786;80;21025;-57
2021/12/28 10:01:55;;;;;;;15.95;9.18;;;;;;;-2.17;50.12;100893.80;1747803;80;22280;-58
2021/12/28 10:04:21;;;;;;;16.95;9.28;;;;;;;-2.13;49.99;100901.87;1750250;80;21096;-59
2021/12/28 10:06:48;;;;;;;16.17;9.75;;;;;;;-2.09;49.88;100899.62;1751700;80;21542;-59
2021/12/28 10:09:23;;;;;;;15.60;9.23;;;;;;;-2.01;49.22;100897.36;1756182;79;21147;-58
2021/12/28 10:11:53;;;;;;;17.23;10.13;;;;;;;-2.01;48.98;100898.20;1721899;81;21065;-58
2021/12/28 10:14:26;;;;;;;20.20;10.00;;;;;;;-2.07;49.08;100890.16;1757070;79;21102;-58
2021/12/28 10:17:02;;;;;;;15.10;9.03;;;;;;;-2.10;48.88;100885.47;1753871;79;21116;-58
2021/12/28 10:19:44;;;;;;;20.82;10.82;;;;;;;-2.16;48.88;100888.20;1727782;79;22441;-58
2021/12/28 10:22:33;;;;;;;14.47;9.08;;;;;;;-2.26;49.21;100881.91;1754865;80;21121;-58
2021/12/28 10:25:18;;;;;;;17.05;9.85;;;;;;;-2.30;49.61;100882.02;1756421;80;21076;-57
2021/12/28 10:27:47;;;;;;;21.27;10.03;;;;;;;-2.32;49.41;100880.76;1757547;79;21051;-59
2021/12/28 10:30:24;;;;;;;15.15;9.35;;;;;;;-2.37;49.55;100880.41;1757909;79;21144;-59
2021/12/28 10:32:58;;;;;;;16.02;8.93;;;;;;;-2.41;48.92;100873.63;1726997;81;21602;-58
2021/12/28 10:35:28;;;;;;;18.27;9.73;;;;;;;-2.51;49.21;100866.05;1757902;79;21781;-58
2021/12/28 10:37:59;;;;;;;16.48;8.55;;;;;;;-2.51;49.53;100871.20;1751040;79;21061;-59
2021/12/28 10:40:37;;;;;;;14.20;8.75;;;;;;;-2.53;49.34;100869.10;1756162;79;21071;-58
2021/12/28 10:43:11;;;;;;;13.90;9.18;;;;;;;-2.53;49.31;100867.81;1752489;79;21570;-59
2021/12/28 10:45:49;;;;;;;17.12;9.15;;;;;;;-2.56;49.44;100869.16;1755063;79;21055;-58
2021/12/28 10:48:21;;;;;;;13.78;9.00;;;;;;;-2.56;49.65;100863.16;1751727;79;21095;-59
2021/12/28 10:51:05;;;;;;;16.87;10.40;;;;;;;-2.52;49.26;100859.22;1726350;81;21087;-59
2021/12/28 10:54:01;;;;;;;15.32;9.18;;;;;;;-2.52;49.12;100856.64;1726920;80;21090;-57
2021/12/28 10:56:23;;;;;;;20.75;9.65;;;;;;;-2.54;49.07;100851.09;1751424;79;21084;-57
2021/12/28 10:58:50;;;;;;;18.25;9.68;;;;;;;-2.54;49.19;100851.09;1755389;79;20996;-58
2021/12/28 11:01:26;;;;;;;16.05;9.55;;;;;;;-2.56;49.21;100843.39;1748323;79;21146;-57
2021/12/28 11:04:05;;;;;;;16.77;10.08;;;;;;;-2.57;49.56;100843.41;1752396;79;21574;-57
2021/12/28 11:06:33;;;;;;;18.15;10.53;;;;;;;-2.55;49.57;100841.23;1757700;81;21124;-58
2021/12/28 11:09:06;;;;;;;17.90;10.82;;;;;;;-2.54;50.08;100848.09;1754917;79;21051;-57
2021/12/28 11:11:32;;;;;;;22.27;11.08;;;;;;;-2.56;50.26;100838.23;1754262;80;21674;-58
2021/12/28 11:14:01;;;;;;;19.05;10.40;;;;;;;-2.69;50.54;100845.36;1748777;80;21161;-58
2021/12/28 11:16:29;;;;;;;18.05;10.65;;;;;;;-2.78;51.27;100853.23;1723921;80;21020;-58
2021/12/28 11:18:59;;;;;;;20.15;10.95;;;;;;;-2.80;51.16;100854.98;1720907;81;21169;-58